createdAt,value
2024-04-17T00:00:45.275Z,7.95
2024-04-17T00:03:07.705Z,7.96
2024-04-17T00:05:12.258Z,7.97
2024-04-17T00:07:15.077Z,7.97
2024-04-17T00:09:17.878Z,7.97
2024-04-17T00:11:22.065Z,7.97
2024-04-17T00:13:24.730Z,7.97
2024-04-17T00:15:27.341Z,7.98
2024-04-17T00:17:29.813Z,8.00
2024-04-17T00:19:32.221Z,8.03
2024-04-17T00:21:35.299Z,8.05
2024-04-17T00:23:38.938Z,8.07
2024-04-17T00:25:41.502Z,8.08
2024-04-17T00:27:43.925Z,8.14
2024-04-17T00:29:46.366Z,8.17
2024-04-17T00:31:48.841Z,8.17
2024-04-17T00:33:51.404Z,8.16
2024-04-17T00:35:53.829Z,8.16
2024-04-17T00:37:57.374Z,8.15
2024-04-17T00:39:59.763Z,8.12
2024-04-17T00:42:02.477Z,8.10
2024-04-17T00:44:05.557Z,8.10
2024-04-17T00:46:14.003Z,8.09
2024-04-17T00:48:17.947Z,8.08
2024-04-17T00:50:20.566Z,8.07
2024-04-17T00:52:24.073Z,8.07
2024-04-17T00:54:26.610Z,8.10
2024-04-17T00:56:29.416Z,8.10
2024-04-17T00:58:32.217Z,8.10
2024-04-17T01:00:37.208Z,8.12
2024-04-17T01:02:40.045Z,8.11
2024-04-17T01:04:42.575Z,8.08
2024-04-17T01:06:45.074Z,8.08
2024-04-17T01:08:47.899Z,8.09
2024-04-17T01:11:02.484Z,8.08
2024-04-17T01:13:05.186Z,8.10
2024-04-17T01:15:12.302Z,8.07
2024-04-17T01:17:15.023Z,8.05
2024-04-17T01:19:18.025Z,8.02
2024-04-17T01:21:20.418Z,7.99
2024-04-17T01:23:22.989Z,7.98
2024-04-17T01:25:25.556Z,7.97
2024-04-17T01:27:27.992Z,7.95
2024-04-17T01:29:30.441Z,7.93
2024-04-17T01:31:32.864Z,7.94
2024-04-17T01:33:36.425Z,7.94
2024-04-17T01:35:38.881Z,7.94
2024-04-17T01:37:41.392Z,7.95
2024-04-17T01:39:44.456Z,7.97
2024-04-17T01:41:46.843Z,7.96
2024-04-17T01:43:49.604Z,7.96
2024-04-17T01:45:52.553Z,7.96
2024-04-17T01:47:55.285Z,7.99
2024-04-17T01:49:58.247Z,7.99
2024-04-17T01:52:00.606Z,7.98
2024-04-17T01:54:03.061Z,7.98
2024-04-17T01:56:06.003Z,7.96
2024-04-17T01:58:08.553Z,7.95
2024-04-17T02:00:11.662Z,7.93
2024-04-17T02:02:14.049Z,7.90
2024-04-17T02:04:16.532Z,7.84
2024-04-17T02:06:19.373Z,7.78
2024-04-17T02:08:21.814Z,7.73
2024-04-17T02:10:24.371Z,7.73
2024-04-17T02:12:26.814Z,7.75
2024-04-17T02:14:29.192Z,7.78
2024-04-17T02:16:32.474Z,7.81
2024-04-17T02:18:35.203Z,7.82
2024-04-17T02:20:37.767Z,7.82
2024-04-17T02:22:40.249Z,7.82
2024-04-17T02:24:42.754Z,7.81
2024-04-17T02:26:45.111Z,7.82
2024-04-17T02:28:47.741Z,7.80
2024-04-17T02:30:50.802Z,7.77
2024-04-17T02:32:53.390Z,7.75
2024-04-17T02:34:55.996Z,7.71
2024-04-17T02:36:58.603Z,7.68
2024-04-17T02:39:01.078Z,7.68
2024-04-17T02:41:03.610Z,7.67
2024-04-17T02:43:06.434Z,7.69
2024-04-17T02:45:09.103Z,7.74
2024-04-17T02:47:12.092Z,7.77
2024-04-17T02:49:14.596Z,7.82
2024-04-17T02:51:17.006Z,7.85
2024-04-17T02:53:19.384Z,7.87
2024-04-17T02:55:21.818Z,7.89
2024-04-17T02:57:24.315Z,7.90
2024-04-17T02:59:26.815Z,7.92
2024-04-17T03:01:29.374Z,7.91
2024-04-17T03:03:31.924Z,7.91
2024-04-17T03:05:35.179Z,7.91
2024-04-17T03:07:37.659Z,7.91
2024-04-17T03:09:40.464Z,7.89
2024-04-17T03:11:42.863Z,7.88
2024-04-17T03:13:46.283Z,7.87
2024-04-17T03:15:48.651Z,7.84
2024-04-17T03:17:51.282Z,7.84
2024-04-17T03:19:53.961Z,7.85
2024-04-17T03:21:56.316Z,7.87
2024-04-17T03:23:58.704Z,7.87
2024-04-17T03:26:02.151Z,7.90
2024-04-17T03:28:05.338Z,7.94
2024-04-17T03:30:08.576Z,7.98
2024-04-17T03:32:11.001Z,7.97
2024-04-17T03:34:13.480Z,7.97
2024-04-17T03:36:20.722Z,7.97
2024-04-17T03:38:25.567Z,7.95
2024-04-17T03:40:28.265Z,7.94
2024-04-17T03:42:31.996Z,7.95
2024-04-17T03:44:34.456Z,7.94
2024-04-17T03:46:37.012Z,7.92
2024-04-17T03:48:39.425Z,7.89
2024-04-17T03:50:41.917Z,7.89
2024-04-17T03:52:44.437Z,7.88
2024-04-17T03:54:46.877Z,7.88
2024-04-17T03:56:49.242Z,7.89
2024-04-17T03:58:51.706Z,7.88
2024-04-17T04:00:54.329Z,7.89
2024-04-17T04:02:57.060Z,7.89
2024-04-17T04:04:59.663Z,7.88
2024-04-17T04:07:02.107Z,7.87
2024-04-17T04:09:04.533Z,7.87
2024-04-17T04:11:07.199Z,7.88
2024-04-17T04:13:09.743Z,7.89
2024-04-17T04:15:12.314Z,7.88
2024-04-17T04:17:14.806Z,7.86
2024-04-17T04:19:17.336Z,7.84
2024-04-17T04:21:19.781Z,7.82
2024-04-17T04:23:22.227Z,7.81
2024-04-17T04:25:24.753Z,7.81
2024-04-17T04:27:27.306Z,7.83
2024-04-17T04:29:29.730Z,7.86
2024-04-17T04:31:32.430Z,7.87
2024-04-17T04:33:34.966Z,7.88
2024-04-17T04:35:37.802Z,7.90
2024-04-17T04:37:43.127Z,7.92
2024-04-17T04:39:46.876Z,7.92
2024-04-17T04:41:49.406Z,7.90
2024-04-17T04:43:51.778Z,7.88
2024-04-17T04:45:54.327Z,7.88
2024-04-17T04:47:56.807Z,7.86
2024-04-17T04:49:59.305Z,7.85
2024-04-17T04:52:01.941Z,7.84
2024-04-17T04:54:04.387Z,7.82
2024-04-17T04:56:07.023Z,7.81
2024-04-17T04:58:09.474Z,7.79
2024-04-17T05:00:12.310Z,7.80
2024-04-17T05:02:15.012Z,7.84
2024-04-17T05:04:17.596Z,7.87
2024-04-17T05:06:19.995Z,7.91
2024-04-17T05:08:22.420Z,7.93
2024-04-17T05:10:24.846Z,7.94
2024-04-17T05:12:27.591Z,7.96
2024-04-17T05:14:30.008Z,7.99
2024-04-17T05:16:32.529Z,8.01
2024-04-17T05:18:35.883Z,8.00
2024-04-17T05:20:38.799Z,7.96
2024-04-17T05:22:41.436Z,7.93
2024-04-17T05:24:43.875Z,7.87
2024-04-17T05:26:46.603Z,7.85
2024-04-17T05:28:49.036Z,7.86
2024-04-17T05:31:00.691Z,7.86
2024-04-17T05:33:03.621Z,7.82
2024-04-17T05:35:06.587Z,7.76
2024-04-17T05:37:08.997Z,7.73
2024-04-17T05:39:11.448Z,7.72
2024-04-17T05:41:13.957Z,7.73
2024-04-17T05:43:17.179Z,7.74
2024-04-17T05:45:19.588Z,7.72
2024-04-17T05:47:22.153Z,7.72
2024-04-17T05:49:24.715Z,7.76
2024-04-17T05:51:27.060Z,7.80
2024-04-17T05:53:29.503Z,7.83
2024-04-17T05:55:33.191Z,7.85
2024-04-17T05:57:35.672Z,7.88
2024-04-17T05:59:38.047Z,7.91
2024-04-17T06:01:40.457Z,7.92
2024-04-17T06:03:43.141Z,7.93
2024-04-17T06:05:45.606Z,7.96
2024-04-17T06:07:48.068Z,7.96
2024-04-17T06:09:50.500Z,7.98
2024-04-17T06:11:53.679Z,7.99
2024-04-17T06:13:56.724Z,8.01
2024-04-17T06:15:59.168Z,8.01
2024-04-17T06:18:01.664Z,8.04
2024-04-17T06:20:04.569Z,8.09
2024-04-17T06:22:07.008Z,8.11
2024-04-17T06:24:09.804Z,8.12
2024-04-17T06:26:15.475Z,8.14
2024-04-17T06:28:18.926Z,8.19
2024-04-17T06:30:21.432Z,8.24
2024-04-17T06:32:24.020Z,8.30
2024-04-17T06:34:26.574Z,8.36
2024-04-17T06:36:29.059Z,8.38
2024-04-17T06:38:31.657Z,8.41
2024-04-17T06:40:34.094Z,8.44
2024-04-17T06:42:36.628Z,8.47
2024-04-17T06:44:40.028Z,8.50
2024-04-17T06:46:43.133Z,8.50
2024-04-17T06:48:45.646Z,8.50
2024-04-17T06:50:48.172Z,8.53
2024-04-17T06:52:50.730Z,8.53
2024-04-17T06:54:53.242Z,8.55
2024-04-17T06:56:55.681Z,8.57
2024-04-17T06:58:58.077Z,8.63
2024-04-17T07:01:00.697Z,8.70
2024-04-17T07:03:05.282Z,8.76
2024-04-17T07:05:08.958Z,8.78
2024-04-17T07:07:11.492Z,8.79
2024-04-17T07:09:14.137Z,8.81
2024-04-17T07:11:17.341Z,8.82
2024-04-17T07:13:20.127Z,8.84
2024-04-17T07:15:22.794Z,8.87
2024-04-17T07:17:25.833Z,8.92
2024-04-17T07:19:28.348Z,8.97
2024-04-17T07:21:30.863Z,9.00
2024-04-17T07:23:33.356Z,9.03
2024-04-17T07:25:35.773Z,9.08
2024-04-17T07:27:38.157Z,9.13
2024-04-17T07:29:40.576Z,9.15
2024-04-17T07:31:44.705Z,9.16
2024-04-17T07:33:50.001Z,9.17
2024-04-17T07:35:59.850Z,9.18
2024-04-17T07:38:02.812Z,9.20
2024-04-17T07:40:05.874Z,9.20
2024-04-17T07:42:08.306Z,9.23
2024-04-17T07:44:10.839Z,9.25
2024-04-17T07:46:13.344Z,9.26
2024-04-17T07:48:15.823Z,9.29
2024-04-17T07:50:19.666Z,9.35
2024-04-17T07:52:22.083Z,9.40
2024-04-17T07:54:24.508Z,9.48
2024-04-17T07:56:27.083Z,9.46
2024-04-17T07:58:29.509Z,9.42
2024-04-17T08:00:33.124Z,9.43
2024-04-17T08:02:35.677Z,9.44
2024-04-17T08:04:38.176Z,9.48
2024-04-17T08:06:40.522Z,9.49
2024-04-17T08:08:43.100Z,9.50
2024-04-17T08:10:45.557Z,9.47
2024-04-17T08:12:48.736Z,9.39
2024-04-17T08:14:52.140Z,9.36
2024-04-17T08:16:54.669Z,9.37
2024-04-17T08:18:58.133Z,9.36
2024-04-17T08:21:03.649Z,9.33
2024-04-17T08:23:06.306Z,9.31
2024-04-17T08:25:08.861Z,9.29
2024-04-17T08:27:11.369Z,9.25
2024-04-17T08:29:14.196Z,9.23
2024-04-17T08:31:16.781Z,9.22
2024-04-17T08:33:19.266Z,9.25
2024-04-17T08:35:22.670Z,9.32
2024-04-17T08:37:25.327Z,9.35
2024-04-17T08:39:27.901Z,9.39
2024-04-17T08:41:36.003Z,9.44
2024-04-17T08:43:41.712Z,9.51
2024-04-17T08:45:50.057Z,9.54
2024-04-17T08:47:55.164Z,9.56
2024-04-17T08:50:00.905Z,9.56
2024-04-17T08:52:04.091Z,9.55
2024-04-17T08:54:07.590Z,9.53
2024-04-17T08:56:14.336Z,9.49
2024-04-17T08:58:17.496Z,9.47
2024-04-17T09:00:20.658Z,9.47
2024-04-17T09:02:24.675Z,9.47
2024-04-17T09:04:28.563Z,9.52
2024-04-17T09:06:31.920Z,9.62
2024-04-17T09:08:34.758Z,9.74
2024-04-17T09:10:37.312Z,9.87
2024-04-17T09:12:46.091Z,9.94
2024-04-17T09:14:55.402Z,10.03
2024-04-17T09:17:00.403Z,10.10
2024-04-17T09:19:03.334Z,10.14
2024-04-17T09:21:06.640Z,10.16
2024-04-17T09:23:10.238Z,10.19
2024-04-17T09:25:16.870Z,10.21
2024-04-17T09:27:19.599Z,10.22
2024-04-17T09:29:22.341Z,10.25
2024-04-17T09:31:25.055Z,10.27
2024-04-17T09:33:28.905Z,10.29
2024-04-17T09:35:31.623Z,10.28
2024-04-17T09:37:34.517Z,10.28
2024-04-17T09:39:37.508Z,10.28
2024-04-17T09:41:45.562Z,10.25
2024-04-17T09:43:55.790Z,10.21
2024-04-17T09:46:02.272Z,10.15
2024-04-17T09:48:09.735Z,10.08
2024-04-17T09:50:18.461Z,10.03
2024-04-17T09:52:21.419Z,9.98
2024-04-17T09:54:24.568Z,9.95
2024-04-17T09:56:28.240Z,9.96
2024-04-17T09:58:37.375Z,10.03
2024-04-17T10:00:41.111Z,10.12
2024-04-17T10:02:45.309Z,10.16
2024-04-17T10:04:53.949Z,10.21
2024-04-17T10:07:00.941Z,10.28
2024-04-17T10:09:06.229Z,10.32
2024-04-17T10:11:09.963Z,10.34
2024-04-17T10:13:13.096Z,10.35
2024-04-17T10:15:16.764Z,10.29
2024-04-17T10:17:30.099Z,10.12
2024-04-17T10:19:38.200Z,9.98
2024-04-17T10:21:42.917Z,9.80
2024-04-17T10:23:45.281Z,9.64
2024-04-17T10:25:58.280Z,9.46
2024-04-17T10:28:27.679Z,9.33
2024-04-17T10:30:35.439Z,9.23
2024-04-17T10:32:38.105Z,9.13
2024-04-17T10:34:48.335Z,9.01
2024-04-17T10:37:03.973Z,8.93
2024-04-17T10:39:06.881Z,8.90
2024-04-17T10:41:12.640Z,8.92
2024-04-17T10:43:15.644Z,8.91
2024-04-17T10:45:18.183Z,8.94
2024-04-17T10:47:30.609Z,9.00
2024-04-17T10:49:42.008Z,9.08
2024-04-17T10:51:45.155Z,9.17
2024-04-17T10:53:48.848Z,9.19
2024-04-17T10:55:52.047Z,9.29
2024-04-17T10:57:54.887Z,9.39
2024-04-17T10:59:57.380Z,9.49
2024-04-17T11:02:00.144Z,9.59
2024-04-17T11:04:02.887Z,9.68
2024-04-17T11:06:12.048Z,9.78
2024-04-17T11:08:15.416Z,9.86
2024-04-17T11:10:17.830Z,9.95
2024-04-17T11:12:21.011Z,10.03
2024-04-17T11:14:23.466Z,10.11
2024-04-17T11:16:26.002Z,10.19
2024-04-17T11:18:32.789Z,10.30
2024-04-17T11:20:37.636Z,10.40
2024-04-17T11:22:41.650Z,10.50
2024-04-17T11:24:53.943Z,10.60
2024-04-17T11:26:56.295Z,10.64
2024-04-17T11:28:59.009Z,10.64
2024-04-17T11:31:01.657Z,10.60
2024-04-17T11:33:04.803Z,10.48
2024-04-17T11:35:16.011Z,10.35
2024-04-17T11:37:18.796Z,10.22
2024-04-17T11:39:21.674Z,10.09
2024-04-17T11:41:24.039Z,10.00
2024-04-17T11:43:27.242Z,9.90
2024-04-17T11:45:30.388Z,9.81
2024-04-17T11:47:32.952Z,9.75
2024-04-17T11:49:35.596Z,9.72
2024-04-17T11:51:38.125Z,9.72
2024-04-17T11:53:41.342Z,9.73
2024-04-17T11:55:43.819Z,9.73
2024-04-17T11:57:46.368Z,9.73
2024-04-17T11:59:49.160Z,9.77
2024-04-17T12:01:51.695Z,9.74
2024-04-17T12:03:54.230Z,9.73
2024-04-17T12:05:56.706Z,9.74
2024-04-17T12:08:00.026Z,9.83
2024-04-17T12:10:04.184Z,9.92
2024-04-17T12:12:08.222Z,10.02
2024-04-17T12:14:10.695Z,10.12
2024-04-17T12:16:13.127Z,10.23
2024-04-17T12:18:15.652Z,10.34
2024-04-17T12:20:18.354Z,10.43
2024-04-17T12:22:20.790Z,10.49
2024-04-17T12:24:43.212Z,10.52
2024-04-17T12:26:53.296Z,10.55
2024-04-17T12:28:55.910Z,10.56
2024-04-17T12:30:58.766Z,10.56
2024-04-17T12:33:01.286Z,10.56
2024-04-17T12:35:06.146Z,10.56
2024-04-17T12:37:11.078Z,10.57
2024-04-17T12:39:13.746Z,10.57
2024-04-17T12:41:19.122Z,10.57
2024-04-17T12:43:21.771Z,10.53
2024-04-17T12:45:24.220Z,10.50
2024-04-17T12:47:27.570Z,10.48
2024-04-17T12:49:30.056Z,10.47
2024-04-17T12:51:32.633Z,10.41
2024-04-17T12:53:35.142Z,10.31
2024-04-17T12:55:37.884Z,10.25
2024-04-17T12:57:42.165Z,10.23
2024-04-17T12:59:44.563Z,10.23
2024-04-17T13:01:46.914Z,10.22
2024-04-17T13:03:49.450Z,10.21
2024-04-17T13:06:00.623Z,10.23
2024-04-17T13:08:03.326Z,10.26
2024-04-17T13:10:09.627Z,10.31
2024-04-17T13:12:12.983Z,10.38
2024-04-17T13:14:16.908Z,10.43
2024-04-17T13:16:19.306Z,10.50
2024-04-17T13:18:21.879Z,10.56
2024-04-17T13:20:24.504Z,10.62
2024-04-17T13:22:28.378Z,10.69
2024-04-17T13:24:31.250Z,10.80
2024-04-17T13:26:33.863Z,10.89
2024-04-17T13:28:36.831Z,10.98
2024-04-17T13:30:39.226Z,11.04
2024-04-17T13:32:41.723Z,11.10
2024-04-17T13:34:44.154Z,11.15
2024-04-17T13:36:46.632Z,11.24
2024-04-17T13:38:49.409Z,11.32
2024-04-17T13:40:59.318Z,11.34
2024-04-17T13:43:01.753Z,11.36
2024-04-17T13:45:06.316Z,11.37
2024-04-17T13:47:08.895Z,11.36
2024-04-17T13:49:11.372Z,11.36
2024-04-17T13:51:13.821Z,11.37
2024-04-17T13:53:16.267Z,11.39
2024-04-17T13:55:19.067Z,11.41
2024-04-17T13:57:21.471Z,11.43
2024-04-17T13:59:23.997Z,11.44
2024-04-17T14:01:26.464Z,11.47
2024-04-17T14:03:29.097Z,11.51
2024-04-17T14:05:35.883Z,11.55
2024-04-17T14:07:38.414Z,11.55
2024-04-17T14:09:40.936Z,11.47
2024-04-17T14:11:43.435Z,11.45
2024-04-17T14:13:45.906Z,11.49
2024-04-17T14:15:48.427Z,11.53
2024-04-17T14:17:51.387Z,11.58
2024-04-17T14:19:54.170Z,11.62
2024-04-17T14:21:57.604Z,11.67
2024-04-17T14:24:00.429Z,11.69
2024-04-17T14:26:03.620Z,11.71
2024-04-17T14:28:07.247Z,11.71
2024-04-17T14:30:12.648Z,11.68
2024-04-17T14:32:17.983Z,11.66
2024-04-17T14:34:20.837Z,11.66
2024-04-17T14:36:27.948Z,11.67
2024-04-17T14:38:31.016Z,11.66
2024-04-17T14:40:33.511Z,11.66
2024-04-17T14:42:36.679Z,11.66
2024-04-17T14:44:40.133Z,11.66
2024-04-17T14:46:43.127Z,11.66
2024-04-17T14:48:45.536Z,11.67
2024-04-17T14:50:47.915Z,11.68
2024-04-17T14:52:50.306Z,11.68
2024-04-17T14:54:52.790Z,11.70
2024-04-17T14:56:55.147Z,11.73
2024-04-17T14:58:57.546Z,11.76
2024-04-17T15:01:00.824Z,11.78
2024-04-17T15:03:05.554Z,11.80
2024-04-17T15:05:08.914Z,11.83
2024-04-17T15:07:11.488Z,11.83
2024-04-17T15:09:14.167Z,11.84
2024-04-17T15:11:17.363Z,11.87
2024-04-17T15:13:20.206Z,11.90
2024-04-17T15:15:22.691Z,11.94
2024-04-17T15:17:25.492Z,11.98
2024-04-17T15:19:30.151Z,12.02
2024-04-17T15:21:32.950Z,12.05
2024-04-17T15:23:36.786Z,12.09
2024-04-17T15:25:39.207Z,12.11
2024-04-17T15:27:41.750Z,12.11
2024-04-17T15:29:45.480Z,12.10
2024-04-17T15:31:47.904Z,12.10
2024-04-17T15:33:55.330Z,12.08
2024-04-17T15:35:58.874Z,12.05
2024-04-17T15:38:01.673Z,12.02
2024-04-17T15:40:04.674Z,11.98
2024-04-17T15:42:07.189Z,11.94
2024-04-17T15:44:09.778Z,11.90
2024-04-17T15:46:13.880Z,11.85
2024-04-17T15:48:16.405Z,11.76
2024-04-17T15:50:18.951Z,11.64
2024-04-17T15:52:21.308Z,11.50
2024-04-17T15:54:25.264Z,11.35
2024-04-17T15:56:28.530Z,11.29
2024-04-17T15:58:30.939Z,11.27
2024-04-17T16:00:33.298Z,11.26
2024-04-17T16:02:37.833Z,11.24
2024-04-17T16:04:40.338Z,11.23
2024-04-17T16:06:42.798Z,11.24
2024-04-17T16:08:45.766Z,11.28
2024-04-17T16:11:01.124Z,11.34
2024-04-17T16:13:04.054Z,11.36
2024-04-17T16:15:10.637Z,11.36
2024-04-17T16:17:13.486Z,11.35
2024-04-17T16:19:15.963Z,11.33
2024-04-17T16:21:19.152Z,11.32
2024-04-17T16:23:23.061Z,11.30
2024-04-17T16:25:25.459Z,11.28
2024-04-17T16:27:27.841Z,11.27
2024-04-17T16:29:30.260Z,11.25
2024-04-17T16:31:32.816Z,11.25
2024-04-17T16:33:35.418Z,11.24
2024-04-17T16:35:37.901Z,11.22
2024-04-17T16:37:40.305Z,11.21
2024-04-17T16:39:44.719Z,11.19
2024-04-17T16:41:47.213Z,11.18
2024-04-17T16:43:49.821Z,11.22
2024-04-17T16:46:01.595Z,11.37
2024-04-17T16:48:04.218Z,11.53
2024-04-17T16:50:07.108Z,11.59
2024-04-17T16:52:09.444Z,11.61
2024-04-17T16:54:13.763Z,11.63
2024-04-17T16:56:18.105Z,11.64
2024-04-17T16:58:23.816Z,11.65
2024-04-17T17:00:26.512Z,11.62
2024-04-17T17:02:30.125Z,11.58
2024-04-17T17:04:34.267Z,11.51
2024-04-17T17:06:38.215Z,11.43
2024-04-17T17:08:42.138Z,11.36
2024-04-17T17:10:52.036Z,11.30
2024-04-17T17:12:58.295Z,11.25
2024-04-17T17:15:00.876Z,11.19
2024-04-17T17:17:04.965Z,11.13
2024-04-17T17:19:08.919Z,11.08
2024-04-17T17:21:14.994Z,11.02
2024-04-17T17:23:20.981Z,10.97
2024-04-17T17:25:39.479Z,10.92
2024-04-17T17:27:43.233Z,10.86
2024-04-17T17:29:48.909Z,10.81
2024-04-17T17:31:52.431Z,10.76
2024-04-17T17:33:57.068Z,10.69
2024-04-17T17:36:04.430Z,10.64
2024-04-17T17:38:09.196Z,10.60
2024-04-17T17:40:12.907Z,10.56
2024-04-17T17:42:18.357Z,10.53
2024-04-17T17:44:20.749Z,10.50
2024-04-17T17:46:24.760Z,10.46
2024-04-17T17:48:28.859Z,10.42
2024-04-17T17:50:32.570Z,10.39
2024-04-17T17:52:36.147Z,10.36
2024-04-17T17:54:40.397Z,10.33
2024-04-17T17:56:42.935Z,10.31
2024-04-17T17:58:48.231Z,10.28
2024-04-17T18:00:52.923Z,10.25
2024-04-17T18:02:56.744Z,10.22
2024-04-17T18:04:59.137Z,10.19
2024-04-17T18:07:02.968Z,10.16
2024-04-17T18:09:10.047Z,10.13
2024-04-17T18:11:15.458Z,10.10
2024-04-17T18:13:20.395Z,10.07
2024-04-17T18:15:24.570Z,10.02
2024-04-17T18:17:29.322Z,9.99
2024-04-17T18:19:31.764Z,9.95
2024-04-17T18:21:35.693Z,9.91
2024-04-17T18:23:41.433Z,9.88
2024-04-17T18:25:45.121Z,9.84
2024-04-17T18:27:48.923Z,9.81
2024-04-17T18:29:51.220Z,9.79
2024-04-17T18:31:54.938Z,9.77
2024-04-17T18:33:58.972Z,9.74
2024-04-17T18:36:04.392Z,9.71
2024-04-17T18:38:08.208Z,9.69
2024-04-17T18:40:14.460Z,9.67
2024-04-17T18:42:18.234Z,9.69
2024-04-17T18:44:23.456Z,9.71
2024-04-17T18:46:33.480Z,9.73
2024-04-17T18:48:38.251Z,9.74
2024-04-17T18:50:42.695Z,9.76
2024-04-17T18:52:46.513Z,9.78
2024-04-17T18:54:51.030Z,9.78
2024-04-17T18:56:55.116Z,9.77
2024-04-17T18:58:59.631Z,9.76
2024-04-17T19:01:08.844Z,9.75
2024-04-17T19:03:12.994Z,9.74
2024-04-17T19:05:17.021Z,9.72
2024-04-17T19:07:22.448Z,9.71
2024-04-17T19:09:25.809Z,9.69
2024-04-17T19:11:30.090Z,9.67
2024-04-17T19:13:34.377Z,9.66
2024-04-17T19:15:42.021Z,9.64
2024-04-17T19:17:44.476Z,9.60
2024-04-17T19:19:48.761Z,9.57
2024-04-17T19:21:55.226Z,9.55
2024-04-17T19:23:59.759Z,9.53
2024-04-17T19:26:05.176Z,9.51
2024-04-17T19:28:09.492Z,9.49
2024-04-17T19:30:14.477Z,9.47
2024-04-17T19:32:18.940Z,9.45
2024-04-17T19:34:23.576Z,9.41
2024-04-17T19:36:28.872Z,9.38
2024-04-17T19:38:38.112Z,9.36
2024-04-17T19:40:45.837Z,9.34
2024-04-17T19:42:56.610Z,9.32
2024-04-17T19:45:03.848Z,9.30
2024-04-17T19:47:08.463Z,9.28
2024-04-17T19:49:14.783Z,9.25
2024-04-17T19:51:18.767Z,9.26
2024-04-17T19:53:23.883Z,9.29
2024-04-17T19:55:29.592Z,9.32
2024-04-17T19:57:52.309Z,9.34
2024-04-17T19:59:55.499Z,9.36
2024-04-17T20:01:58.428Z,9.37
2024-04-17T20:04:01.202Z,9.38
2024-04-17T20:06:06.144Z,9.39
2024-04-17T20:08:08.567Z,9.39
2024-04-17T20:10:18.483Z,9.38
2024-04-17T20:12:22.626Z,9.38
2024-04-17T20:14:27.028Z,9.38
2024-04-17T20:16:31.594Z,9.37
2024-04-17T20:18:36.875Z,9.35
2024-04-17T20:21:01.006Z,9.32
2024-04-17T20:23:04.770Z,9.29
2024-04-17T20:25:09.991Z,9.25
2024-04-17T20:27:12.558Z,9.23
2024-04-17T20:29:16.368Z,9.20
2024-04-17T20:31:21.162Z,9.18
2024-04-17T20:33:25.346Z,9.18
2024-04-17T20:35:28.039Z,9.16
2024-04-17T20:37:37.816Z,9.14
2024-04-17T20:39:42.232Z,9.14
2024-04-17T20:41:46.124Z,9.13
2024-04-17T20:43:48.660Z,9.10
2024-04-17T20:45:52.261Z,9.07
2024-04-17T20:47:56.514Z,9.06
2024-04-17T20:50:03.115Z,9.04
2024-04-17T20:52:07.814Z,9.00
2024-04-17T20:54:10.370Z,8.98
2024-04-17T20:56:12.985Z,8.96
2024-04-17T20:58:15.520Z,8.93
2024-04-17T21:00:18.088Z,8.91
2024-04-17T21:02:20.673Z,8.89
2024-04-17T21:04:23.099Z,8.90
2024-04-17T21:06:25.717Z,8.91
2024-04-17T21:08:28.549Z,8.94
2024-04-17T21:10:31.219Z,8.96
2024-04-17T21:12:33.683Z,8.97
2024-04-17T21:14:36.499Z,8.98
2024-04-17T21:16:38.937Z,9.00
2024-04-17T21:18:42.473Z,9.00
2024-04-17T21:20:44.904Z,9.00
2024-04-17T21:22:47.253Z,8.99
2024-04-17T21:24:50.264Z,8.98
2024-04-17T21:26:52.696Z,8.96
2024-04-17T21:28:56.292Z,8.94
2024-04-17T21:30:58.838Z,8.91
2024-04-17T21:33:01.497Z,8.89
2024-04-17T21:35:06.685Z,8.86
2024-04-17T21:37:10.624Z,8.82
2024-04-17T21:39:13.433Z,8.78
2024-04-17T21:41:16.053Z,8.74
2024-04-17T21:43:18.693Z,8.69
2024-04-17T21:45:21.428Z,8.66
2024-04-17T21:47:24.420Z,8.62
2024-04-17T21:49:26.912Z,8.59
2024-04-17T21:51:29.439Z,8.56
2024-04-17T21:53:32.555Z,8.53
2024-04-17T21:55:34.954Z,8.50
2024-04-17T21:57:37.464Z,8.48
2024-04-17T21:59:39.871Z,8.46
2024-04-17T22:01:43.145Z,8.44
2024-04-17T22:03:46.027Z,8.43
2024-04-17T22:05:51.477Z,8.41
2024-04-17T22:07:53.853Z,8.39
2024-04-17T22:09:56.252Z,8.39
2024-04-17T22:11:59.146Z,8.39
2024-04-17T22:14:01.573Z,8.40
2024-04-17T22:16:04.185Z,8.39
2024-04-17T22:18:06.837Z,8.41
2024-04-17T22:20:09.344Z,8.41
2024-04-17T22:22:12.668Z,8.41
2024-04-17T22:24:15.177Z,8.40
2024-04-17T22:26:18.670Z,8.41
2024-04-17T22:28:21.090Z,8.40
2024-04-17T22:30:23.927Z,8.39
2024-04-17T22:32:26.375Z,8.38
2024-04-17T22:34:29.914Z,8.37
2024-04-17T22:36:32.779Z,8.34
2024-04-17T22:38:35.188Z,8.32
2024-04-17T22:40:37.579Z,8.30
2024-04-17T22:42:40.370Z,8.26
2024-04-17T22:44:42.885Z,8.23
2024-04-17T22:46:45.519Z,8.21
2024-04-17T22:48:48.092Z,8.19
2024-04-17T22:50:50.580Z,8.18
2024-04-17T22:52:52.981Z,8.17
2024-04-17T22:54:55.730Z,8.14
2024-04-17T22:57:00.408Z,8.12
2024-04-17T22:59:02.968Z,8.09
2024-04-17T23:01:05.456Z,8.06
2024-04-17T23:03:07.947Z,8.03
2024-04-17T23:05:10.364Z,8.01
2024-04-17T23:07:12.907Z,8.00
2024-04-17T23:09:15.284Z,7.98
2024-04-17T23:11:17.762Z,7.96
2024-04-17T23:13:20.166Z,7.94
2024-04-17T23:15:22.638Z,7.93
2024-04-17T23:17:25.081Z,7.90
2024-04-17T23:19:27.450Z,7.88
2024-04-17T23:21:30.067Z,7.87
2024-04-17T23:23:33.109Z,7.85
2024-04-17T23:25:36.757Z,7.84
2024-04-17T23:27:39.368Z,7.83
2024-04-17T23:29:41.922Z,7.83
2024-04-17T23:31:44.379Z,7.80
2024-04-17T23:33:47.213Z,7.78
2024-04-17T23:35:49.793Z,7.77
2024-04-17T23:37:52.559Z,7.75
2024-04-17T23:39:55.431Z,7.75
2024-04-17T23:41:57.801Z,7.77
2024-04-17T23:44:00.239Z,7.79
2024-04-17T23:46:02.683Z,7.78
2024-04-17T23:48:05.791Z,7.78
2024-04-17T23:50:08.232Z,7.75
2024-04-17T23:52:10.877Z,7.77
2024-04-17T23:54:13.542Z,7.78
2024-04-17T23:56:17.380Z,7.78
2024-04-17T23:58:19.898Z,7.78
